createdAt,value
2018-01-04T00:03:08.063Z,98900.88
2018-01-04T00:08:10.143Z,98912.66
2018-01-04T00:13:11.513Z,98918.00
2018-01-04T00:18:12.899Z,98909.58
2018-01-04T00:23:14.270Z,98910.63
2018-01-04T00:28:15.668Z,98912.69
2018-01-04T00:33:17.035Z,98921.02
2018-01-04T00:38:19.135Z,98924.94
2018-01-04T00:43:25.780Z,98917.70
2018-01-04T00:48:29.023Z,98909.63
2018-01-04T00:53:31.146Z,98918.92
2018-01-04T00:58:32.516Z,98924.59
2018-01-04T01:03:33.854Z,98920.80
2018-01-04T01:08:35.190Z,98936.98
2018-01-04T01:13:36.563Z,98929.81
2018-01-04T01:18:38.670Z,98929.47
2018-01-04T01:23:40.756Z,98933.91
2018-01-04T01:28:42.223Z,98944.73
2018-01-04T01:33:43.563Z,98947.66
2018-01-04T01:38:45.690Z,98932.50
2018-01-04T01:43:47.048Z,98959.73
2018-01-04T01:48:48.382Z,98959.84
2018-01-04T01:53:50.236Z,98952.61
2018-01-04T01:58:54.627Z,98962.08
2018-01-04T02:03:58.653Z,98962.34
2018-01-04T02:09:01.267Z,98968.45
2018-01-04T02:14:02.664Z,98974.92
2018-01-04T02:19:24.321Z,98972.31
2018-01-04T02:24:44.391Z,98977.75
2018-01-04T02:30:04.368Z,98986.41
2018-01-04T02:35:10.611Z,98986.71
2018-01-04T02:40:30.459Z,98999.83
2018-01-04T02:45:59.623Z,98996.31
2018-01-04T02:51:01.790Z,99001.52
2018-01-04T02:56:03.139Z,99004.19
2018-01-04T03:01:04.509Z,98994.14
2018-01-04T03:06:05.871Z,98995.27
2018-01-04T03:11:11.775Z,99002.09
2018-01-04T03:16:16.472Z,98991.88
2018-01-04T03:21:18.822Z,98998.76
2018-01-04T03:26:26.148Z,99001.36
2018-01-04T03:31:33.691Z,99007.56
2018-01-04T03:36:41.697Z,99009.78
2018-01-04T03:41:50.133Z,99008.31
2018-01-04T03:46:57.623Z,99010.16
2018-01-04T03:52:05.709Z,99019.48
2018-01-04T03:57:13.592Z,99011.38
2018-01-04T04:02:22.139Z,99014.32
2018-01-04T04:07:27.443Z,99019.33
2018-01-04T04:12:28.809Z,99022.52
2018-01-04T04:17:30.171Z,99018.68
2018-01-04T04:22:31.509Z,99027.67
2018-01-04T04:27:32.942Z,99016.08
2018-01-04T04:32:34.316Z,99028.61
2018-01-04T04:37:45.390Z,99043.04
2018-01-04T04:42:48.250Z,99052.70
2018-01-04T04:47:49.910Z,99054.33
2018-01-04T04:52:51.296Z,99052.65
2018-01-04T04:57:52.711Z,99057.70
2018-01-04T05:02:54.051Z,99055.69
2018-01-04T05:07:56.315Z,99050.33
2018-01-04T05:12:57.712Z,99045.84
2018-01-04T05:17:59.084Z,99048.15
2018-01-04T05:23:00.440Z,99044.28
2018-01-04T05:28:01.837Z,99017.52
2018-01-04T05:33:03.260Z,99035.64
2018-01-04T05:38:04.601Z,99032.55
2018-01-04T05:43:05.924Z,99046.58
2018-01-04T05:48:11.303Z,99043.19
2018-01-04T05:53:17.079Z,99047.83
2018-01-04T05:58:18.625Z,99046.58
2018-01-04T06:03:20.190Z,99038.66
2018-01-04T06:08:21.616Z,99042.86
2018-01-04T06:13:22.979Z,99049.44
2018-01-04T06:18:24.311Z,99056.27
2018-01-04T06:23:25.616Z,99054.36
2018-01-04T06:28:27.672Z,99038.86
2018-01-04T06:33:29.048Z,99065.01
2018-01-04T06:38:30.414Z,99080.15
2018-01-04T06:43:31.762Z,99071.59
2018-01-04T06:48:33.076Z,99084.12
2018-01-04T06:53:34.424Z,99076.41
2018-01-04T06:58:35.770Z,99089.15
2018-01-04T07:03:40.704Z,99088.18
2018-01-04T07:08:45.606Z,99096.38
2018-01-04T07:13:47.668Z,99085.89
2018-01-04T07:18:49.368Z,99073.59
2018-01-04T07:23:50.738Z,99077.27
2018-01-04T07:28:52.366Z,99077.13
2018-01-04T07:33:53.998Z,99075.39
2018-01-04T07:38:55.360Z,99084.25
2018-01-04T07:43:56.712Z,99100.45
2018-01-04T07:48:58.022Z,99093.16
2018-01-04T07:53:59.368Z,99095.70
2018-01-04T07:59:00.710Z,99107.77
2018-01-04T08:04:02.099Z,99110.66
2018-01-04T08:09:03.461Z,99109.52
2018-01-04T08:14:04.819Z,99109.58
2018-01-04T08:19:06.181Z,99099.31
2018-01-04T08:24:07.615Z,99097.48
2018-01-04T08:29:08.954Z,99094.08
2018-01-04T08:34:13.071Z,99101.54
2018-01-04T08:39:15.453Z,99107.50
2018-01-04T08:44:17.584Z,99118.17
2018-01-04T08:49:19.378Z,99113.06
2018-01-04T08:54:20.757Z,99117.09
2018-01-04T08:59:22.095Z,99112.47
2018-01-04T09:04:23.430Z,99120.89
2018-01-04T09:09:26.241Z,99116.52
2018-01-04T09:14:28.295Z,99116.92
2018-01-04T09:19:29.636Z,99112.24
2018-01-04T09:24:31.753Z,99124.89
2018-01-04T09:29:33.816Z,99117.64
2018-01-04T09:34:35.139Z,99118.83
2018-01-04T09:39:36.476Z,99124.10
2018-01-04T09:44:37.808Z,99123.06
2018-01-04T09:49:39.152Z,99122.59
2018-01-04T09:54:43.522Z,99124.37
2018-01-04T09:59:45.692Z,99109.89
2018-01-04T10:04:48.270Z,99130.01
2018-01-04T10:09:50.039Z,99123.92
2018-01-04T10:14:51.479Z,99115.31
2018-01-04T10:19:52.836Z,99115.89
2018-01-04T10:24:54.182Z,99105.70
2018-01-04T10:29:56.296Z,99098.23
2018-01-04T10:34:57.630Z,99082.59
2018-01-04T10:39:58.951Z,99083.38
2018-01-04T10:45:00.256Z,99079.93
2018-01-04T10:50:01.673Z,99075.62
2018-01-04T10:55:03.119Z,99077.30
2018-01-04T11:00:04.504Z,99079.00
2018-01-04T11:05:05.909Z,99081.11
2018-01-04T11:10:07.303Z,99064.50
2018-01-04T11:15:09.558Z,99052.98
2018-01-04T11:20:15.431Z,99049.67
2018-01-04T11:25:18.575Z,99048.06
2018-01-04T11:30:20.185Z,99030.46
2018-01-04T11:35:21.536Z,99028.95
2018-01-04T11:40:22.980Z,99012.50
2018-01-04T11:45:24.316Z,99006.47
2018-01-04T11:50:26.432Z,99002.36
2018-01-04T11:55:27.784Z,98994.17
2018-01-04T12:00:29.751Z,98985.94
2018-01-04T12:05:31.424Z,98993.20
2018-01-04T12:10:32.811Z,98988.71
2018-01-04T12:15:35.871Z,98980.00
2018-01-04T12:20:38.998Z,98967.27
2018-01-04T12:25:43.813Z,98955.08
2018-01-04T12:30:47.560Z,98950.58
2018-01-04T12:35:50.818Z,98940.73
2018-01-04T12:40:52.914Z,98931.80
2018-01-04T12:45:54.510Z,98926.22
2018-01-04T12:50:56.352Z,98914.66
2018-01-04T12:55:57.680Z,98902.05
2018-01-04T13:00:59.118Z,98898.95
2018-01-04T13:06:00.459Z,98890.17
2018-01-04T13:11:01.781Z,98878.13
2018-01-04T13:16:03.892Z,98868.68
2018-01-04T13:21:05.987Z,98867.11
2018-01-04T13:26:07.297Z,98856.30
2018-01-04T13:31:08.733Z,98839.77
2018-01-04T13:36:11.053Z,98838.09
2018-01-04T13:41:14.537Z,98833.89
2018-01-04T13:46:17.147Z,98839.49
2018-01-04T13:51:18.568Z,98819.13
2018-01-04T13:56:19.924Z,98828.42
2018-01-04T14:01:21.302Z,98810.94
2018-01-04T14:06:22.623Z,98797.25
2018-01-04T14:11:24.691Z,98792.73
2018-01-04T14:16:26.032Z,98773.52
2018-01-04T14:21:28.677Z,98767.89
2018-01-04T14:26:30.140Z,98761.20
2018-01-04T14:31:31.464Z,98764.07
2018-01-04T14:36:32.813Z,98757.81
2018-01-04T14:41:34.160Z,98758.20
2018-01-04T14:46:35.668Z,98741.64
2018-01-04T14:51:37.850Z,98727.32
2018-01-04T14:56:41.852Z,98720.28
2018-01-04T15:01:43.788Z,98725.16
2018-01-04T15:06:46.446Z,98723.53
2018-01-04T15:11:48.244Z,98718.80
2018-01-04T15:16:49.619Z,98700.13
2018-01-04T15:21:50.958Z,98701.86
2018-01-04T15:26:52.387Z,98688.84
2018-01-04T15:31:53.699Z,98689.61
2018-01-04T15:36:55.048Z,98681.37
2018-01-04T15:41:56.391Z,98683.27
2018-01-04T15:46:57.711Z,98673.65
2018-01-04T15:51:59.069Z,98674.77
2018-01-04T15:57:00.397Z,98665.97
2018-01-04T16:02:01.825Z,98642.80
2018-01-04T16:07:03.233Z,98639.89
2018-01-04T16:12:04.575Z,98634.99
2018-01-04T16:17:05.948Z,98623.42
2018-01-04T16:22:09.901Z,98624.34
2018-01-04T16:27:14.032Z,98609.62
2018-01-04T16:32:16.318Z,98595.90
2018-01-04T16:37:18.762Z,98582.39
2018-01-04T16:42:20.131Z,98581.34
2018-01-04T16:47:21.529Z,98560.87
2018-01-04T16:52:22.914Z,98559.46
2018-01-04T16:57:24.253Z,98545.05
2018-01-04T17:02:26.353Z,98538.68
2018-01-04T17:07:27.675Z,98527.38
2018-01-04T17:12:29.115Z,98531.34
2018-01-04T17:17:30.488Z,98508.78
2018-01-04T17:22:31.816Z,98515.51
2018-01-04T17:27:33.180Z,98492.80
2018-01-04T17:32:34.555Z,98487.91
2018-01-04T17:37:35.866Z,98472.06
2018-01-04T17:42:37.249Z,98458.89
2018-01-04T17:47:39.653Z,98477.33
2018-01-04T17:52:41.132Z,98456.05
2018-01-04T17:57:42.482Z,98464.34
2018-01-04T18:02:43.813Z,98450.43
2018-01-04T18:07:45.120Z,98437.11
2018-01-04T18:12:46.488Z,98438.25
2018-01-04T18:17:47.854Z,98431.11
2018-01-04T18:22:49.224Z,98418.41
2018-01-04T18:27:51.300Z,98402.78
2018-01-04T18:32:52.605Z,98381.83
2018-01-04T18:37:53.964Z,98381.52
2018-01-04T18:42:55.303Z,98362.87
2018-01-04T18:47:57.363Z,98362.84
2018-01-04T18:52:58.696Z,98359.60
2018-01-04T18:58:00.808Z,98360.88
2018-01-04T19:03:02.905Z,98352.08
2018-01-04T19:08:04.315Z,98347.11
2018-01-04T19:13:06.411Z,98351.03
2018-01-04T19:18:08.473Z,98335.80
2018-01-04T19:23:09.842Z,98363.05
2018-01-04T19:28:11.185Z,98351.60
2018-01-04T19:33:12.504Z,98357.98
2018-01-04T19:38:13.831Z,98382.55
2018-01-04T19:43:15.222Z,98366.86
2018-01-04T19:48:16.734Z,98363.65
2018-01-04T19:53:18.077Z,98358.15
2018-01-04T19:58:19.409Z,98353.75
2018-01-04T20:03:20.749Z,98358.17
2018-01-04T20:08:22.048Z,98351.02
2018-01-04T20:13:23.373Z,98346.53
2018-01-04T20:18:24.741Z,98343.22
2018-01-04T20:23:26.093Z,98345.09
2018-01-04T20:28:28.165Z,98348.83
2018-01-04T20:33:29.501Z,98342.05
2018-01-04T20:38:30.906Z,98345.36
2018-01-04T20:43:32.225Z,98337.47
2018-01-04T20:48:33.613Z,98337.09
2018-01-04T20:53:34.977Z,98345.13
2018-01-04T20:58:36.443Z,98352.02
2018-01-04T21:03:38.544Z,98360.64
2018-01-04T21:08:40.044Z,98371.45
2018-01-04T21:13:42.116Z,98373.60
2018-01-04T21:18:43.472Z,98382.72
2018-01-04T21:23:44.835Z,98391.08
2018-01-04T21:28:46.171Z,98383.92
2018-01-04T21:33:47.534Z,98401.11
2018-01-04T21:38:48.892Z,98413.38
2018-01-04T21:43:50.242Z,98429.92
2018-01-04T21:48:51.576Z,98430.33
2018-01-04T21:53:53.695Z,98429.72
2018-01-04T21:58:55.051Z,98438.67
2018-01-04T22:03:56.460Z,98452.58
2018-01-04T22:08:57.776Z,98464.55
2018-01-04T22:13:59.149Z,98482.91
2018-01-04T22:19:01.287Z,98491.31
2018-01-04T22:24:02.659Z,98479.41
2018-01-04T22:29:04.793Z,98488.50
2018-01-04T22:34:06.132Z,98498.44
2018-01-04T22:39:07.458Z,98491.37
2018-01-04T22:44:08.794Z,98508.64
2018-01-04T22:49:10.141Z,98507.59
2018-01-04T22:54:11.526Z,98498.97
2018-01-04T22:59:12.967Z,98498.92
2018-01-04T23:04:14.235Z,98526.77
2018-01-04T23:09:15.535Z,98530.80
2018-01-04T23:14:16.935Z,98535.69
2018-01-04T23:19:18.297Z,98559.41
2018-01-04T23:24:19.619Z,98597.78
2018-01-04T23:29:20.944Z,98602.60
2018-01-04T23:34:22.292Z,98618.31
2018-01-04T23:39:23.779Z,98647.92
2018-01-04T23:44:25.091Z,98652.70
2018-01-04T23:49:26.423Z,98643.69
2018-01-04T23:54:27.743Z,98648.66
2018-01-04T23:59:29.059Z,98662.49
